Time;durP1;ratioP1;P1;durP2;ratioP2;P2;SDS_P1;SDS_P2;PMS_P1;PMS_P2;Temp;Humidity;BMP_temperature;BMP_pressure;BME280_temperature;BME280_humidity;BME280_pressure;Samples;Min_cycle;Max_cycle;Signal;HPM_P1;HPM_P2
2022/10/13 00:01:20;;;;;;;14.77;6.40;;;;;;;;;;5037586;28;20127;-76
2022/10/13 00:03:46;;;;;;;13.93;6.78;;;;;;;;;;5038050;28;20041;-76
2022/10/13 00:06:12;;;;;;;14.77;6.60;;;;;;;;;;5039139;28;20029;-76
2022/10/13 00:08:39;;;;;;;12.05;6.65;;;;;;;;;;5039368;28;20550;-75
2022/10/13 00:11:20;;;;;;;13.43;6.68;;;;;;;;;;5040964;28;20063;-75
2022/10/13 00:13:46;;;;;;;12.85;6.80;;;;;;;;;;5040588;28;20053;-76
2022/10/13 00:16:14;;;;;;;10.32;5.88;;;;;;;;;;5039981;28;20029;-76
2022/10/13 00:18:40;;;;;;;15.77;6.68;;;;;;;;;;5040448;28;20025;-77
2022/10/13 00:21:08;;;;;;;13.32;6.22;;;;;;;;;;5040955;28;20037;-74
2022/10/13 00:23:34;;;;;;;13.30;6.35;;;;;;;;;;5039826;28;20515;-75
2022/10/13 00:26:04;;;;;;;13.15;6.63;;;;;;;;;;5034403;28;20030;-77
2022/10/13 00:28:30;;;;;;;15.77;6.60;;;;;;;;;;5028713;28;20018;-76
2022/10/13 00:30:56;;;;;;;17.05;6.60;;;;;;;;;;5029591;28;20631;-77
2022/10/13 00:33:21;;;;;;;10.68;6.40;;;;;;;;;;5029376;28;20037;-77
2022/10/13 00:35:48;;;;;;;9.02;5.65;;;;;;;;;;5029314;28;20509;-76
2022/10/13 00:38:19;;;;;;;13.80;5.60;;;;;;;;;;5028056;28;20502;-76
2022/10/13 00:40:54;;;;;;;10.52;5.75;;;;;;;;;;5029568;28;20444;-75
2022/10/13 00:43:24;;;;;;;13.57;6.13;;;;;;;;;;5029546;28;20483;-75
2022/10/13 00:45:50;;;;;;;12.48;6.45;;;;;;;;;;5029282;28;20120;-75
2022/10/13 00:48:29;;;;;;;14.20;6.45;;;;;;;;;;5028761;28;20471;-75
2022/10/13 00:50:57;;;;;;;11.65;6.07;;;;;;;;;;5029301;28;20056;-75
2022/10/13 00:53:27;;;;;;;11.52;6.22;;;;;;;;;;5029541;28;20079;-76
2022/10/13 00:55:53;;;;;;;16.08;6.25;;;;;;;;;;5028004;28;20496;-76
2022/10/13 00:58:22;;;;;;;10.95;6.43;;;;;;;;;;5029179;28;20029;-76
2022/10/13 01:00:49;;;;;;;12.13;6.32;;;;;;;;;;5028797;28;20042;-75
2022/10/13 01:03:16;;;;;;;11.57;6.45;;;;;;;;;;5027800;28;20410;-76
2022/10/13 01:05:42;;;;;;;10.48;6.43;;;;;;;;;;5029372;28;20025;-77
2022/10/13 01:08:09;;;;;;;16.25;6.35;;;;;;;;;;5027779;28;20025;-76
2022/10/13 01:10:55;;;;;;;13.23;5.60;;;;;;;;;;5029055;28;20033;-76
2022/10/13 01:13:37;;;;;;;13.38;6.47;;;;;;;;;;5027402;28;20087;-76
2022/10/13 01:16:22;;;;;;;10.93;5.93;;;;;;;;;;5032954;28;20036;-76
2022/10/13 01:19:19;;;;;;;13.30;6.00;;;;;;;;;;5033083;28;20026;-76
2022/10/13 01:21:50;;;;;;;11.27;5.97;;;;;;;;;;5032551;28;20091;-75
2022/10/13 01:24:19;;;;;;;14.80;6.20;;;;;;;;;;5032584;28;20100;-76
2022/10/13 01:26:56;;;;;;;17.20;5.72;;;;;;;;;;5032568;28;20033;-76
2022/10/13 01:29:50;;;;;;;9.70;5.82;;;;;;;;;;5031234;28;20048;-76
2022/10/13 01:32:26;;;;;;;8.93;5.30;;;;;;;;;;5032827;28;20037;-76
2022/10/13 01:35:07;;;;;;;11.32;5.80;;;;;;;;;;5031453;28;20434;-76
2022/10/13 01:37:38;;;;;;;11.75;5.63;;;;;;;;;;5032309;28;20025;-76
2022/10/13 01:40:24;;;;;;;10.27;5.60;;;;;;;;;;5032447;28;20494;-75
2022/10/13 01:43:18;;;;;;;15.13;5.85;;;;;;;;;;5031196;28;20486;-76
2022/10/13 01:45:52;;;;;;;11.45;5.90;;;;;;;;;;5032481;28;20386;-76
2022/10/13 01:48:19;;;;;;;13.10;6.22;;;;;;;;;;5030551;28;20109;-75
2022/10/13 01:50:45;;;;;;;12.27;5.75;;;;;;;;;;5030766;28;20034;-76
2022/10/13 01:53:12;;;;;;;12.32;5.30;;;;;;;;;;5032354;28;20256;-77
2022/10/13 01:55:58;;;;;;;13.27;5.78;;;;;;;;;;5032135;28;20037;-76
2022/10/13 01:58:27;;;;;;;10.30;5.85;;;;;;;;;;5030923;28;20498;-75
2022/10/13 02:01:03;;;;;;;13.95;5.82;;;;;;;;;;5030016;28;20033;-76
2022/10/13 02:03:57;;;;;;;11.48;4.63;;;;;;;;;;5032288;28;20367;-75
2022/10/13 02:06:33;;;;;;;11.32;5.63;;;;;;;;;;5031880;28;20418;-77
2022/10/13 02:09:07;;;;;;;9.13;5.32;;;;;;;;;;5030519;28;20025;-75
2022/10/13 02:11:32;;;;;;;14.10;5.22;;;;;;;;;;5030233;28;20467;-75
2022/10/13 02:13:57;;;;;;;12.95;5.97;;;;;;;;;;5031669;28;20042;-76
2022/10/13 02:16:24;;;;;;;11.30;6.07;;;;;;;;;;5031893;28;20078;-76
2022/10/13 02:18:50;;;;;;;10.05;5.38;;;;;;;;;;5031680;28;20838;-76
2022/10/13 02:21:16;;;;;;;13.88;5.63;;;;;;;;;;5031684;28;20037;-76
2022/10/13 02:23:42;;;;;;;16.67;8.00;;;;;;;;;;5029944;28;20017;-76
2022/10/13 02:26:08;;;;;;;9.52;5.88;;;;;;;;;;5030339;28;20036;-76
2022/10/13 02:28:36;;;;;;;10.02;5.75;;;;;;;;;;5030196;28;20029;-76
2022/10/13 02:31:01;;;;;;;12.93;5.35;;;;;;;;;;5031257;28;20043;-76
2022/10/13 02:33:27;;;;;;;10.35;5.88;;;;;;;;;;5031327;28;20025;-75
2022/10/13 02:35:52;;;;;;;11.20;5.82;;;;;;;;;;5030983;28;20021;-76
2022/10/13 02:38:17;;;;;;;8.85;5.47;;;;;;;;;;5029998;28;20028;-76
2022/10/13 02:40:42;;;;;;;12.57;5.95;;;;;;;;;;5031757;28;20037;-76
2022/10/13 02:43:08;;;;;;;12.15;6.30;;;;;;;;;;5031476;28;20482;-75
2022/10/13 02:45:33;;;;;;;12.52;6.00;;;;;;;;;;5029866;28;20029;-75
2022/10/13 02:47:58;;;;;;;16.23;6.85;;;;;;;;;;5030574;28;20048;-76
2022/10/13 02:50:24;;;;;;;11.30;6.05;;;;;;;;;;5029244;28;20124;-76
2022/10/13 02:52:49;;;;;;;10.18;5.70;;;;;;;;;;5030692;28;20041;-77
2022/10/13 02:55:15;;;;;;;11.18;6.10;;;;;;;;;;5030574;28;20407;-76
2022/10/13 02:57:40;;;;;;;10.00;5.88;;;;;;;;;;5029529;28;20025;-76
2022/10/13 03:00:06;;;;;;;9.98;5.63;;;;;;;;;;5028747;28;20028;-75
2022/10/13 03:02:31;;;;;;;12.13;6.18;;;;;;;;;;5030236;28;20033;-76
2022/10/13 03:04:56;;;;;;;16.65;7.35;;;;;;;;;;5030498;28;20033;-76
2022/10/13 03:07:22;;;;;;;15.95;7.07;;;;;;;;;;5030362;28;20025;-76
2022/10/13 03:09:47;;;;;;;13.25;5.82;;;;;;;;;;5030259;28;20037;-76
2022/10/13 03:12:12;;;;;;;14.68;5.78;;;;;;;;;;5029874;28;20063;-76
2022/10/13 03:14:38;;;;;;;12.50;5.47;;;;;;;;;;5030181;28;20029;-76
2022/10/13 03:17:03;;;;;;;10.13;5.55;;;;;;;;;;5030155;28;20029;-76
2022/10/13 03:19:29;;;;;;;10.30;5.85;;;;;;;;;;5029992;28;20436;-75
2022/10/13 03:21:54;;;;;;;11.73;5.80;;;;;;;;;;5029872;28;20823;-75
2022/10/13 03:24:20;;;;;;;15.10;7.20;;;;;;;;;;5029714;28;20044;-76
2022/10/13 03:26:45;;;;;;;18.88;7.03;;;;;;;;;;5029968;28;20048;-75
2022/10/13 03:29:13;;;;;;;10.70;6.25;;;;;;;;;;5028492;28;20056;-75
2022/10/13 03:31:39;;;;;;;13.75;6.53;;;;;;;;;;5029871;28;20136;-75
2022/10/13 03:34:04;;;;;;;12.77;6.20;;;;;;;;;;5028393;28;20120;-76
2022/10/13 03:36:29;;;;;;;10.82;5.70;;;;;;;;;;5027765;28;20029;-76
2022/10/13 03:38:55;;;;;;;11.73;5.53;;;;;;;;;;5029759;28;20033;-76
2022/10/13 03:41:21;;;;;;;9.02;5.53;;;;;;;;;;5029626;28;20037;-76
2022/10/13 03:43:46;;;;;;;13.45;5.72;;;;;;;;;;5029758;28;20556;-76
2022/10/13 03:46:14;;;;;;;13.10;6.40;;;;;;;;;;5029646;28;20029;-76
2022/10/13 03:48:40;;;;;;;12.20;6.18;;;;;;;;;;5029328;28;20025;-78
2022/10/13 03:51:18;;;;;;;10.52;5.63;;;;;;;;;;5029546;28;20560;-76
2022/10/13 03:53:43;;;;;;;11.02;6.00;;;;;;;;;;5028400;28;20028;-76
2022/10/13 03:56:13;;;;;;;13.05;6.38;;;;;;;;;;5029544;28;20030;-76
2022/10/13 03:58:38;;;;;;;14.93;6.75;;;;;;;;;;5028183;28;20021;-76
2022/10/13 04:01:04;;;;;;;15.38;6.35;;;;;;;;;;5027648;28;20394;-76
2022/10/13 04:03:31;;;;;;;14.90;6.30;;;;;;;;;;5029616;28;20029;-76
2022/10/13 04:06:00;;;;;;;14.57;5.97;;;;;;;;;;5029607;28;20479;-76
2022/10/13 04:08:26;;;;;;;14.60;5.93;;;;;;;;;;5029429;28;20033;-75
2022/10/13 04:10:58;;;;;;;11.75;5.78;;;;;;;;;;5029921;28;20103;-75
2022/10/13 04:13:23;;;;;;;16.30;6.82;;;;;;;;;;5033130;28;20037;-76
2022/10/13 04:15:48;;;;;;;12.40;5.70;;;;;;;;;;5030454;28;20075;-77
2022/10/13 04:18:13;;;;;;;13.10;6.32;;;;;;;;;;5031929;28;20542;-77
2022/10/13 04:20:39;;;;;;;14.43;6.47;;;;;;;;;;5032656;28;20083;-75
2022/10/13 04:23:05;;;;;;;17.45;6.70;;;;;;;;;;5031499;28;20072;-76
2022/10/13 04:25:34;;;;;;;16.25;6.60;;;;;;;;;;5033005;28;20067;-75
2022/10/13 04:27:59;;;;;;;20.13;6.57;;;;;;;;;;5032869;28;20061;-76
2022/10/13 04:30:24;;;;;;;15.93;6.45;;;;;;;;;;5032600;28;20052;-77
2022/10/13 04:32:50;;;;;;;11.75;5.82;;;;;;;;;;5032554;28;20360;-76
2022/10/13 04:35:15;;;;;;;11.55;6.50;;;;;;;;;;5031341;28;20030;-76
2022/10/13 04:37:40;;;;;;;20.83;6.90;;;;;;;;;;5032511;28;20084;-76
2022/10/13 04:40:06;;;;;;;14.05;7.05;;;;;;;;;;5032544;28;20112;-76
2022/10/13 04:42:32;;;;;;;12.98;6.28;;;;;;;;;;5031178;28;20025;-76
2022/10/13 04:44:58;;;;;;;14.02;7.10;;;;;;;;;;5032653;28;20029;-77
2022/10/13 04:47:23;;;;;;;15.07;6.50;;;;;;;;;;5032266;28;20040;-76
2022/10/13 04:49:48;;;;;;;13.15;6.30;;;;;;;;;;5034729;28;20030;-75
2022/10/13 04:52:13;;;;;;;12.93;6.45;;;;;;;;;;5037269;28;20446;-78
2022/10/13 04:54:39;;;;;;;16.23;6.97;;;;;;;;;;5036544;28;20018;-76
2022/10/13 04:57:04;;;;;;;16.75;6.38;;;;;;;;;;5036464;28;20029;-76
2022/10/13 04:59:29;;;;;;;16.30;6.18;;;;;;;;;;5036449;28;20026;-77
2022/10/13 05:01:54;;;;;;;15.07;6.57;;;;;;;;;;5034894;28;20075;-76
2022/10/13 05:04:20;;;;;;;14.75;5.88;;;;;;;;;;5036579;28;20426;-76
2022/10/13 05:06:45;;;;;;;13.18;6.45;;;;;;;;;;5036170;28;20068;-76
2022/10/13 05:09:17;;;;;;;14.63;6.63;;;;;;;;;;5036017;28;20112;-76
2022/10/13 05:11:42;;;;;;;18.25;6.75;;;;;;;;;;5036205;28;20083;-75
2022/10/13 05:14:07;;;;;;;14.52;6.95;;;;;;;;;;5036223;28;20021;-76
2022/10/13 05:16:33;;;;;;;17.13;6.68;;;;;;;;;;5035471;28;20032;-78
2022/10/13 05:18:58;;;;;;;20.70;6.80;;;;;;;;;;5036259;28;20437;-76
2022/10/13 05:21:27;;;;;;;18.30;6.72;;;;;;;;;;5035821;28;20072;-76
2022/10/13 05:23:54;;;;;;;13.13;6.90;;;;;;;;;;5035954;28;20112;-76
2022/10/13 05:26:22;;;;;;;17.25;7.00;;;;;;;;;;5036098;28;20021;-76
2022/10/13 05:28:48;;;;;;;20.13;7.47;;;;;;;;;;5036268;28;20021;-76
2022/10/13 05:31:19;;;;;;;19.42;7.93;;;;;;;;;;5034378;28;20034;-75
2022/10/13 05:33:45;;;;;;;19.80;7.32;;;;;;;;;;5034179;28;20112;-75
2022/10/13 05:36:22;;;;;;;14.15;7.13;;;;;;;;;;5035821;28;20053;-76
2022/10/13 05:38:54;;;;;;;10.90;6.18;;;;;;;;;;5035477;28;20057;-76
2022/10/13 05:41:19;;;;;;;17.23;6.95;;;;;;;;;;5035473;28;20039;-75
2022/10/13 05:43:45;;;;;;;15.02;6.55;;;;;;;;;;5035648;28;20030;-75
2022/10/13 05:46:10;;;;;;;14.02;7.07;;;;;;;;;;5035333;28;20024;-76
2022/10/13 05:48:37;;;;;;;15.25;6.47;;;;;;;;;;5035523;28;20029;-75
2022/10/13 05:51:25;;;;;;;13.35;7.05;;;;;;;;;;5035289;28;20087;-76
2022/10/13 05:54:05;;;;;;;14.75;6.65;;;;;;;;;;5035034;28;20457;-75
2022/10/13 05:56:39;;;;;;;13.95;6.70;;;;;;;;;;5033933;28;20029;-75
2022/10/13 05:59:08;;;;;;;15.70;6.57;;;;;;;;;;5034052;28;20075;-75
2022/10/13 06:01:38;;;;;;;14.95;6.68;;;;;;;;;;5035148;28;20440;-75
2022/10/13 06:04:13;;;;;;;13.68;7.00;;;;;;;;;;5035379;28;20104;-77
2022/10/13 06:06:39;;;;;;;19.70;6.63;;;;;;;;;;5035391;28;20034;-77
2022/10/13 06:09:04;;;;;;;14.40;7.00;;;;;;;;;;5034895;28;20117;-76
2022/10/13 06:11:30;;;;;;;15.85;7.10;;;;;;;;;;5034787;28;20029;-76
2022/10/13 06:13:55;;;;;;;16.45;6.47;;;;;;;;;;5035142;28;20410;-76
2022/10/13 06:16:20;;;;;;;15.02;6.80;;;;;;;;;;5034780;28;20033;-77
2022/10/13 06:18:46;;;;;;;11.88;6.50;;;;;;;;;;5034809;28;20105;-77
2022/10/13 06:21:12;;;;;;;15.40;6.90;;;;;;;;;;5035078;28;20052;-76
2022/10/13 06:23:37;;;;;;;12.90;6.95;;;;;;;;;;5034816;28;20545;-77
2022/10/13 06:26:02;;;;;;;17.20;6.93;;;;;;;;;;5035100;28;20029;-76
2022/10/13 06:28:28;;;;;;;17.60;6.72;;;;;;;;;;5035040;28;20037;-77
2022/10/13 06:30:55;;;;;;;13.80;7.03;;;;;;;;;;5034896;28;20029;-75
2022/10/13 06:33:21;;;;;;;11.88;6.78;;;;;;;;;;5033352;28;20113;-75
2022/10/13 06:35:47;;;;;;;13.93;6.95;;;;;;;;;;5033103;28;20509;-75
2022/10/13 06:38:12;;;;;;;16.10;6.97;;;;;;;;;;5033211;28;20025;-75
2022/10/13 06:40:37;;;;;;;14.75;7.43;;;;;;;;;;5034357;28;20029;-76
2022/10/13 06:43:03;;;;;;;14.57;7.50;;;;;;;;;;5033671;28;20021;-75
2022/10/13 06:45:28;;;;;;;18.10;7.47;;;;;;;;;;5033334;28;20026;-75
2022/10/13 06:47:54;;;;;;;15.68;7.15;;;;;;;;;;5034343;28;20029;-75
2022/10/13 06:50:23;;;;;;;14.30;7.47;;;;;;;;;;5034157;28;20033;-75
2022/10/13 06:52:48;;;;;;;14.07;6.45;;;;;;;;;;5034327;28;20021;-75
2022/10/13 06:55:13;;;;;;;15.65;7.68;;;;;;;;;;5032716;28;20021;-77
2022/10/13 06:57:39;;;;;;;14.02;6.93;;;;;;;;;;5034016;28;20025;-76
2022/10/13 07:00:05;;;;;;;15.15;7.10;;;;;;;;;;5034112;28;20132;-76
2022/10/13 07:02:31;;;;;;;15.52;7.38;;;;;;;;;;5034037;28;20090;-77
2022/10/13 07:04:56;;;;;;;12.18;7.35;;;;;;;;;;5034129;28;20534;-76
2022/10/13 07:07:21;;;;;;;18.25;7.25;;;;;;;;;;5034161;28;20056;-72
2022/10/13 07:09:47;;;;;;;15.57;7.22;;;;;;;;;;5033702;28;20026;-73
2022/10/13 07:12:13;;;;;;;17.52;7.75;;;;;;;;;;5032931;28;20033;-75
2022/10/13 07:14:38;;;;;;;17.15;6.82;;;;;;;;;;5034088;28;20025;-75
2022/10/13 07:17:04;;;;;;;15.45;7.28;;;;;;;;;;5033529;28;20028;-74
2022/10/13 07:19:29;;;;;;;17.65;7.97;;;;;;;;;;5032233;28;20017;-75
2022/10/13 07:21:55;;;;;;;20.95;7.35;;;;;;;;;;5033512;28;20025;-73
2022/10/13 07:24:20;;;;;;;13.27;7.07;;;;;;;;;;5033121;28;20032;-72
2022/10/13 07:26:46;;;;;;;16.13;7.03;;;;;;;;;;5033359;28;20025;-77
2022/10/13 07:29:11;;;;;;;19.98;7.13;;;;;;;;;;5032055;28;20022;-75
2022/10/13 07:31:36;;;;;;;18.58;6.95;;;;;;;;;;5033019;28;20022;-75
2022/10/13 07:34:03;;;;;;;11.75;6.70;;;;;;;;;;5033276;28;20029;-75
2022/10/13 07:36:30;;;;;;;14.60;7.78;;;;;;;;;;5033469;28;20048;-74
2022/10/13 07:38:55;;;;;;;34.38;7.93;;;;;;;;;;5033123;28;20339;-75
2022/10/13 07:41:21;;;;;;;16.35;6.60;;;;;;;;;;5033769;28;20104;-74
2022/10/13 07:43:46;;;;;;;16.58;6.88;;;;;;;;;;5033888;28;20124;-75
2022/10/13 07:46:12;;;;;;;18.38;7.43;;;;;;;;;;5033466;28;20406;-75
2022/10/13 07:48:37;;;;;;;16.67;7.18;;;;;;;;;;5033425;28;20087;-76
2022/10/13 07:51:08;;;;;;;18.10;8.05;;;;;;;;;;5032103;28;20482;-75
2022/10/13 07:53:34;;;;;;;15.95;7.68;;;;;;;;;;5033688;28;20072;-74
2022/10/13 07:56:01;;;;;;;15.60;6.85;;;;;;;;;;5032093;28;20026;-75
2022/10/13 07:58:27;;;;;;;13.82;6.80;;;;;;;;;;5033331;28;20025;-75
2022/10/13 08:00:58;;;;;;;16.30;7.20;;;;;;;;;;5033024;28;20034;-76
2022/10/13 08:03:23;;;;;;;11.98;6.72;;;;;;;;;;5033486;28;20029;-75
2022/10/13 08:05:48;;;;;;;17.55;6.55;;;;;;;;;;5033264;28;20140;-75
2022/10/13 08:08:20;;;;;;;15.18;6.43;;;;;;;;;;5031870;28;20017;-75
2022/10/13 08:10:45;;;;;;;15.60;6.57;;;;;;;;;;5033402;28;20029;-76
2022/10/13 08:13:11;;;;;;;14.55;6.57;;;;;;;;;;5033232;28;20083;-76
2022/10/13 08:15:41;;;;;;;14.30;7.03;;;;;;;;;;5033103;28;20556;-75
2022/10/13 08:18:07;;;;;;;11.68;6.55;;;;;;;;;;5034037;28;20033;-77
2022/10/13 08:20:33;;;;;;;12.48;6.22;;;;;;;;;;5032180;28;20035;-75
2022/10/13 08:22:58;;;;;;;12.32;6.85;;;;;;;;;;5032874;28;20138;-76
2022/10/13 08:25:23;;;;;;;15.32;7.10;;;;;;;;;;5032871;28;20160;-76
2022/10/13 08:27:49;;;;;;;18.55;6.53;;;;;;;;;;5032990;28;20440;-76
2022/10/13 08:30:14;;;;;;;14.02;6.70;;;;;;;;;;5031747;28;20057;-76
2022/10/13 08:32:40;;;;;;;18.17;6.75;;;;;;;;;;5032956;28;20025;-76
2022/10/13 08:35:05;;;;;;;18.60;5.88;;;;;;;;;;5032756;28;20040;-77
2022/10/13 08:37:31;;;;;;;17.17;6.65;;;;;;;;;;5032886;28;20032;-76
2022/10/13 08:39:56;;;;;;;16.67;6.57;;;;;;;;;;5032776;28;20057;-75
2022/10/13 08:42:22;;;;;;;19.58;7.18;;;;;;;;;;5032686;28;20052;-75
2022/10/13 08:44:55;;;;;;;13.02;6.93;;;;;;;;;;5031281;28;20033;-77
2022/10/13 08:47:39;;;;;;;16.97;6.60;;;;;;;;;;5033013;28;20022;-76
2022/10/13 08:50:12;;;;;;;13.13;7.30;;;;;;;;;;5032802;28;20267;-76
2022/10/13 08:52:58;;;;;;;14.40;6.95;;;;;;;;;;5032757;28;20055;-76
2022/10/13 08:55:27;;;;;;;13.52;6.95;;;;;;;;;;5032787;28;20022;-75
2022/10/13 08:57:52;;;;;;;16.00;6.68;;;;;;;;;;5032783;28;20022;-76
2022/10/13 09:00:18;;;;;;;12.63;6.40;;;;;;;;;;5032443;28;20030;-75
2022/10/13 09:02:44;;;;;;;11.93;6.65;;;;;;;;;;5032613;28;20026;-76
2022/10/13 09:05:20;;;;;;;16.70;7.10;;;;;;;;;;5032979;28;20044;-76
2022/10/13 09:07:47;;;;;;;11.50;6.65;;;;;;;;;;5032873;28;20033;-75
2022/10/13 09:10:14;;;;;;;15.02;6.45;;;;;;;;;;5032480;28;20118;-75
2022/10/13 09:12:39;;;;;;;15.95;6.88;;;;;;;;;;5031400;28;20437;-75
2022/10/13 09:15:08;;;;;;;20.73;8.73;;;;;;;;;;5031100;28;20071;-74
2022/10/13 09:17:35;;;;;;;22.50;9.45;;;;;;;;;;5032455;28;20029;-75
2022/10/13 09:20:03;;;;;;;11.13;6.45;;;;;;;;;;5032320;28;20055;-75
2022/10/13 09:22:35;;;;;;;13.32;7.00;;;;;;;;;;5031257;28;20029;-75
2022/10/13 09:25:15;;;;;;;13.65;7.00;;;;;;;;;;5031160;28;20065;-76
2022/10/13 09:27:48;;;;;;;14.48;7.13;;;;;;;;;;5031125;28;20049;-76
2022/10/13 09:30:25;;;;;;;16.10;6.15;;;;;;;;;;5032688;28;20036;-76
2022/10/13 09:32:54;;;;;;;17.23;7.53;;;;;;;;;;5032169;28;20025;-76
2022/10/13 09:35:21;;;;;;;22.08;7.50;;;;;;;;;;5032752;28;20021;-75
2022/10/13 09:38:20;;;;;;;12.55;6.85;;;;;;;;;;5034616;28;20022;-76
2022/10/13 09:41:05;;;;;;;12.85;7.07;;;;;;;;;;5034152;28;20037;-75
2022/10/13 09:43:33;;;;;;;16.15;7.03;;;;;;;;;;5036170;28;20047;-75
2022/10/13 09:46:00;;;;;;;14.23;6.80;;;;;;;;;;5035841;28;20025;-75
2022/10/13 09:48:29;;;;;;;13.88;7.13;;;;;;;;;;5035753;28;20032;-75
2022/10/13 09:50:56;;;;;;;15.52;7.03;;;;;;;;;;5035614;28;20077;-75
2022/10/13 09:53:31;;;;;;;15.27;7.00;;;;;;;;;;5036002;28;20104;-74
2022/10/13 09:56:08;;;;;;;19.27;7.40;;;;;;;;;;5035555;28;20053;-75
2022/10/13 09:58:39;;;;;;;17.90;7.35;;;;;;;;;;5035554;28;20080;-75
2022/10/13 10:01:05;;;;;;;17.25;6.80;;;;;;;;;;5035475;28;20478;-75
2022/10/13 10:03:37;;;;;;;13.77;7.03;;;;;;;;;;5035746;28;20079;-75
2022/10/13 10:06:09;;;;;;;12.73;6.30;;;;;;;;;;5035439;28;20108;-76
2022/10/13 10:08:58;;;;;;;17.33;7.35;;;;;;;;;;5035419;28;20074;-76
2022/10/13 10:11:29;;;;;;;13.98;6.75;;;;;;;;;;5035232;28;20114;-75
2022/10/13 10:13:56;;;;;;;15.68;7.25;;;;;;;;;;5034876;28;20033;-75
2022/10/13 10:16:37;;;;;;;16.02;7.38;;;;;;;;;;5033955;28;20071;-77
2022/10/13 10:19:12;;;;;;;16.27;6.78;;;;;;;;;;5035225;28;20022;-75
2022/10/13 10:21:55;;;;;;;15.48;6.78;;;;;;;;;;5035103;28;20034;-76
2022/10/13 10:24:36;;;;;;;19.88;7.53;;;;;;;;;;5033909;28;20022;-75
2022/10/13 10:27:11;;;;;;;17.13;7.22;;;;;;;;;;5035385;28;20030;-76
2022/10/13 10:29:45;;;;;;;14.48;6.25;;;;;;;;;;5035066;28;20024;-75
2022/10/13 10:32:21;;;;;;;13.55;6.50;;;;;;;;;;5033610;28;20029;-75
2022/10/13 10:34:58;;;;;;;12.38;6.60;;;;;;;;;;5035367;28;20037;-75
2022/10/13 10:37:57;;;;;;;13.13;6.68;;;;;;;;;;5035489;28;20092;-76
2022/10/13 10:40:33;;;;;;;15.55;6.55;;;;;;;;;;5034868;28;20025;-77
2022/10/13 10:43:12;;;;;;;9.77;6.32;;;;;;;;;;5035114;28;20029;-76
2022/10/13 10:45:39;;;;;;;15.68;7.03;;;;;;;;;;5034728;28;20033;-76
2022/10/13 10:48:18;;;;;;;17.08;7.30;;;;;;;;;;5033773;28;20071;-76
2022/10/13 10:50:44;;;;;;;14.45;6.80;;;;;;;;;;5034460;28;20502;-75
2022/10/13 10:53:28;;;;;;;13.15;6.68;;;;;;;;;;5034605;28;20033;-75
2022/10/13 10:56:17;;;;;;;14.32;6.35;;;;;;;;;;5034094;28;20075;-75
2022/10/13 10:59:07;;;;;;;11.13;6.40;;;;;;;;;;5034873;28;20105;-75
2022/10/13 11:01:42;;;;;;;15.38;6.57;;;;;;;;;;5034391;28;20116;-76
2022/10/13 11:04:19;;;;;;;11.85;6.53;;;;;;;;;;5033054;28;20370;-76
2022/10/13 11:06:45;;;;;;;10.18;6.25;;;;;;;;;;5034709;28;20382;-76
2022/10/13 11:09:10;;;;;;;13.38;6.50;;;;;;;;;;5034255;28;20022;-75
2022/10/13 11:11:41;;;;;;;15.10;6.65;;;;;;;;;;5034077;28;20037;-74
2022/10/13 11:14:06;;;;;;;9.80;6.20;;;;;;;;;;5034188;28;20025;-75
2022/10/13 11:16:57;;;;;;;13.20;6.50;;;;;;;;;;5034202;28;20024;-75
2022/10/13 11:19:37;;;;;;;17.08;6.10;;;;;;;;;;5032838;28;20361;-75
2022/10/13 11:22:11;;;;;;;13.95;5.63;;;;;;;;;;5033962;28;20032;-76
2022/10/13 11:24:38;;;;;;;9.57;5.80;;;;;;;;;;5034315;28;20030;-75
2022/10/13 11:27:06;;;;;;;12.15;5.80;;;;;;;;;;5034501;28;20437;-75
2022/10/13 11:29:53;;;;;;;13.98;6.32;;;;;;;;;;5032483;28;20033;-75
2022/10/13 11:35:00;;;;;;;17.25;5.68;;;;;;;;;;5034538;28;20025;-76
2022/10/13 11:37:43;;;;;;;12.48;5.05;;;;;;;;;;5034149;28;20029;-75
2022/10/13 11:40:27;;;;;;;13.15;5.90;;;;;;;;;;5034103;28;20029;-75
2022/10/13 11:43:20;;;;;;;14.38;5.78;;;;;;;;;;5033782;28;20394;-75
2022/10/13 11:46:20;;;;;;;13.05;5.32;;;;;;;;;;5033659;28;20037;-74
2022/10/13 11:49:09;;;;;;;13.68;5.68;;;;;;;;;;5033815;28;20021;-76
2022/10/13 11:51:51;;;;;;;11.07;5.43;;;;;;;;;;5033710;28;20036;-76
2022/10/13 11:54:34;;;;;;;10.95;4.95;;;;;;;;;;5033566;28;20100;-75
2022/10/13 11:56:59;;;;;;;10.65;4.95;;;;;;;;;;5033772;28;20108;-75
2022/10/13 11:59:30;;;;;;;11.75;5.15;;;;;;;;;;5031965;28;20053;-75
2022/10/13 12:02:10;;;;;;;14.98;5.25;;;;;;;;;;5033536;28;20057;-76
2022/10/13 12:04:37;;;;;;;11.50;4.95;;;;;;;;;;5032209;28;20124;-77
2022/10/13 12:07:05;;;;;;;15.35;5.05;;;;;;;;;;5033571;28;20508;-76
2022/10/13 12:09:35;;;;;;;13.70;5.10;;;;;;;;;;5032135;28;20116;-76
2022/10/13 12:12:03;;;;;;;12.80;4.70;;;;;;;;;;5033536;28;20025;-76
2022/10/13 12:14:34;;;;;;;10.38;4.68;;;;;;;;;;5033359;28;20031;-76
2022/10/13 12:17:00;;;;;;;10.80;4.57;;;;;;;;;;5033514;28;20534;-76
2022/10/13 12:19:28;;;;;;;11.88;3.95;;;;;;;;;;5033160;28;20025;-76
2022/10/13 12:21:56;;;;;;;11.13;4.28;;;;;;;;;;5031746;28;20024;-76
2022/10/13 12:24:24;;;;;;;8.02;4.43;;;;;;;;;;5032873;28;20028;-75
2022/10/13 12:26:50;;;;;;;9.02;4.95;;;;;;;;;;5033121;28;20394;-76
2022/10/13 12:29:16;;;;;;;13.85;4.75;;;;;;;;;;5033070;28;20108;-75
2022/10/13 12:31:45;;;;;;;10.90;4.93;;;;;;;;;;5031713;28;20544;-75
2022/10/13 12:34:26;;;;;;;13.88;4.70;;;;;;;;;;5033344;28;20494;-75
2022/10/13 12:36:58;;;;;;;11.48;4.50;;;;;;;;;;5031831;28;20021;-76
2022/10/13 12:39:24;;;;;;;10.02;4.90;;;;;;;;;;5033019;28;20078;-76
2022/10/13 12:41:50;;;;;;;11.82;5.15;;;;;;;;;;5033323;28;20022;-76
2022/10/13 12:44:22;;;;;;;10.13;5.05;;;;;;;;;;5033430;28;20061;-75
2022/10/13 12:46:55;;;;;;;11.82;4.78;;;;;;;;;;5031864;28;20064;-76
2022/10/13 12:49:23;;;;;;;10.05;4.80;;;;;;;;;;5032881;28;20028;-76
2022/10/13 12:52:13;;;;;;;8.57;4.53;;;;;;;;;;5033062;28;20025;-76
2022/10/13 12:54:50;;;;;;;8.90;4.45;;;;;;;;;;5021886;28;20040;-76
2022/10/13 12:57:19;;;;;;;8.70;4.63;;;;;;;;;;5032991;28;20108;-75
2022/10/13 12:59:44;;;;;;;8.40;4.82;;;;;;;;;;5032751;28;20021;-76
2022/10/13 13:02:30;;;;;;;11.52;4.85;;;;;;;;;;5031585;28;20045;-76
2022/10/13 13:04:56;;;;;;;17.90;4.88;;;;;;;;;;5031366;28;20033;-76
2022/10/13 13:07:35;;;;;;;14.25;4.80;;;;;;;;;;5031489;28;20028;-76
2022/10/13 13:10:07;;;;;;;10.45;4.80;;;;;;;;;;5034083;28;20029;-76
2022/10/13 13:12:33;;;;;;;9.35;4.80;;;;;;;;;;5036618;28;20021;-76
2022/10/13 13:15:29;;;;;;;10.80;4.07;;;;;;;;;;5035399;28;20550;-77
2022/10/13 13:18:38;;;;;;;7.57;4.53;;;;;;;;;;5036885;28;20039;-75
2022/10/13 13:21:05;;;;;;;12.68;5.07;;;;;;;;;;5036773;28;20029;-75
2022/10/13 13:23:33;;;;;;;15.43;5.45;;;;;;;;;;5036514;28;20030;-75
2022/10/13 13:26:09;;;;;;;12.55;5.07;;;;;;;;;;5036635;28;20037;-75
2022/10/13 13:28:34;;;;;;;8.82;4.63;;;;;;;;;;5036376;28;20027;-76
2022/10/13 13:30:59;;;;;;;8.50;5.47;;;;;;;;;;5036139;28;20029;-75
2022/10/13 13:33:25;;;;;;;12.05;5.22;;;;;;;;;;5036212;28;20029;-75
2022/10/13 13:35:51;;;;;;;9.80;5.20;;;;;;;;;;5036430;28;20029;-75
2022/10/13 13:38:17;;;;;;;18.13;6.10;;;;;;;;;;5036138;28;20045;-75
2022/10/13 13:40:44;;;;;;;13.65;5.65;;;;;;;;;;5036252;28;20497;-76
2022/10/13 13:43:10;;;;;;;12.52;4.78;;;;;;;;;;5036429;28;20029;-77
2022/10/13 13:45:35;;;;;;;17.75;4.75;;;;;;;;;;5036054;28;20033;-76
2022/10/13 13:48:00;;;;;;;15.10;4.15;;;;;;;;;;5036201;28;20065;-76
2022/10/13 13:50:30;;;;;;;9.10;4.00;;;;;;;;;;5035811;28;20033;-76
2022/10/13 13:52:56;;;;;;;14.18;3.92;;;;;;;;;;5035899;28;20067;-77
2022/10/13 13:55:22;;;;;;;12.27;3.60;;;;;;;;;;5035293;28;20378;-76
2022/10/13 13:57:47;;;;;;;16.50;3.80;;;;;;;;;;5034496;28;20021;-76
2022/10/13 14:00:14;;;;;;;10.85;3.53;;;;;;;;;;5035559;28;20029;-76
2022/10/13 14:02:41;;;;;;;10.70;3.65;;;;;;;;;;5034283;28;20030;-75
2022/10/13 14:05:07;;;;;;;12.20;4.30;;;;;;;;;;5035670;28;20451;-76
2022/10/13 14:07:32;;;;;;;16.08;4.80;;;;;;;;;;5036244;28;20021;-76
2022/10/13 14:09:57;;;;;;;9.55;4.03;;;;;;;;;;5035623;28;20022;-76
2022/10/13 14:12:23;;;;;;;12.05;3.78;;;;;;;;;;5035573;28;20048;-75
2022/10/13 14:14:48;;;;;;;10.88;3.92;;;;;;;;;;5035491;28;20364;-75
2022/10/13 14:17:13;;;;;;;6.90;3.80;;;;;;;;;;5034747;28;20029;-75
2022/10/13 14:19:40;;;;;;;8.05;3.85;;;;;;;;;;5035545;28;20022;-75
2022/10/13 14:22:05;;;;;;;6.70;3.60;;;;;;;;;;5033910;28;20021;-77
2022/10/13 14:24:31;;;;;;;11.63;4.15;;;;;;;;;;5033962;28;20344;-76
2022/10/13 14:26:56;;;;;;;11.60;4.47;;;;;;;;;;5035347;28;20022;-75
2022/10/13 14:29:22;;;;;;;10.05;4.00;;;;;;;;;;5035052;28;20029;-75
2022/10/13 14:31:47;;;;;;;9.25;4.30;;;;;;;;;;5033676;28;20541;-75
2022/10/13 14:34:13;;;;;;;11.02;4.30;;;;;;;;;;5035369;28;20032;-77
2022/10/13 14:36:38;;;;;;;8.60;3.75;;;;;;;;;;5033737;28;20032;-76
2022/10/13 14:39:03;;;;;;;8.88;4.05;;;;;;;;;;5033978;28;20112;-76
2022/10/13 14:41:29;;;;;;;13.27;4.53;;;;;;;;;;5034942;28;20111;-76
2022/10/13 14:43:55;;;;;;;13.00;3.90;;;;;;;;;;5033779;28;20033;-76
2022/10/13 14:46:21;;;;;;;9.10;4.55;;;;;;;;;;5035249;28;20079;-75
2022/10/13 14:48:46;;;;;;;7.85;4.40;;;;;;;;;;5034760;28;20497;-75